Time;durP1;ratioP1;P1;durP2;ratioP2;P2;SDS_P1;SDS_P2;PMS_P1;PMS_P2;Temp;Humidity;BMP_temperature;BMP_pressure;BME280_temperature;BME280_humidity;BME280_pressure;Samples;Min_cycle;Max_cycle;Signal;HPM_P1;HPM_P2
2023/01/18 00:00:07;;;;;;;1.95;0.80;;;3.10;99.90;;;;;;5045126;28;20025;-79
2023/01/18 00:02:33;;;;;;;1.13;0.60;;;3.00;99.90;;;;;;5046654;28;20029;-80
2023/01/18 00:04:58;;;;;;;1.45;0.68;;;3.00;99.90;;;;;;5043830;28;20467;-80
2023/01/18 00:07:24;;;;;;;0.98;0.70;;;2.90;99.90;;;;;;5046456;28;20028;-80
2023/01/18 00:09:50;;;;;;;0.70;0.70;;;2.90;99.90;;;;;;5044881;28;20479;-80
2023/01/18 00:12:15;;;;;;;1.13;0.63;;;3.00;99.90;;;;;;5045337;28;20029;-79
2023/01/18 00:14:41;;;;;;;2.72;0.70;;;3.00;99.90;;;;;;5047136;28;20098;-79
2023/01/18 00:17:07;;;;;;;1.95;0.60;;;3.10;99.90;;;;;;5051232;28;20021;-79
2023/01/18 00:19:33;;;;;;;0.93;0.90;;;3.10;99.90;;;;;;5046968;28;20425;-79
2023/01/18 00:21:59;;;;;;;1.10;0.70;;;3.20;99.90;;;;;;5051610;28;20099;-79
2023/01/18 00:24:26;;;;;;;1.55;0.80;;;3.20;99.90;;;;;;5051623;28;20055;-79
2023/01/18 00:26:52;;;;;;;1.10;1.00;;;3.20;99.90;;;;;;5066433;28;20091;-79
2023/01/18 00:29:18;;;;;;;0.77;0.77;;;3.20;99.90;;;;;;5051249;28;20056;-79
2023/01/18 00:31:44;;;;;;;0.50;0.50;;;3.20;99.90;;;;;;5050600;28;20017;-79
2023/01/18 00:34:10;;;;;;;0.60;0.60;;;3.10;99.90;;;;;;5050612;28;20487;-79
2023/01/18 00:36:36;;;;;;;0.52;0.52;;;3.10;99.90;;;;;;5048413;28;20040;-79
2023/01/18 00:39:03;;;;;;;0.70;0.55;;;3.10;99.90;;;;;;5050064;28;20494;-79
2023/01/18 00:41:29;;;;;;;0.70;0.70;;;2.90;99.90;;;;;;5045532;28;20051;-80
2023/01/18 00:43:55;;;;;;;0.70;0.70;;;2.70;99.90;;;;;;5043092;28;20016;-79
2023/01/18 00:46:22;;;;;;;0.40;0.40;;;2.40;99.90;;;;;;5045218;28;20033;-79
2023/01/18 00:48:48;;;;;;;0.90;0.90;;;2.10;99.90;;;;;;5049583;28;20021;-80
2023/01/18 00:51:17;;;;;;;2.17;0.60;;;1.90;99.90;;;;;;5048895;28;20090;-80
2023/01/18 00:53:44;;;;;;;0.75;0.75;;;1.80;99.90;;;;;;5048915;28;20017;-79
2023/01/18 00:56:20;;;;;;;0.65;0.60;;;1.80;99.90;;;;;;5037361;28;20037;-79
2023/01/18 00:58:46;;;;;;;0.60;0.60;;;1.90;99.90;;;;;;5049976;28;20021;-79
2023/01/18 01:01:13;;;;;;;0.60;0.60;;;1.90;99.90;;;;;;5049720;28;20028;-79
2023/01/18 01:06:44;;;;;;;1.05;0.50;;;1.90;99.90;;;;;;5050312;28;20036;-79
2023/01/18 01:09:14;;;;;;;0.70;0.70;;;1.90;99.90;;;;;;5049499;28;20060;-79
2023/01/18 01:12:31;;;;;;;0.80;0.80;;;1.90;99.90;;;;;;5048054;28;20048;-79
2023/01/18 01:28:06;;;;;;;0.73;0.73;;;2.00;99.90;;;;;;5049602;28;20036;-79
2023/01/18 01:30:32;;;;;;;0.80;0.80;;;1.90;99.90;;;;;;5004933;28;1297493;-79
2023/01/18 01:32:57;;;;;;;0.88;0.80;;;2.00;99.90;;;;;;5045738;28;20025;-79
2023/01/18 01:35:23;;;;;;;1.08;0.85;;;2.00;99.90;;;;;;5039874;28;20100;-79
2023/01/18 01:37:49;;;;;;;0.70;0.70;;;2.00;99.90;;;;;;5050215;28;20052;-79
2023/01/18 01:40:14;;;;;;;0.70;0.50;;;2.10;99.90;;;;;;5049077;28;20502;-79
2023/01/18 01:42:40;;;;;;;0.70;0.50;;;2.00;99.90;;;;;;5049970;28;20498;-79
2023/01/18 01:45:06;;;;;;;1.25;0.90;;;2.00;99.90;;;;;;5051104;28;20135;-79
2023/01/18 01:47:38;;;;;;;0.80;0.80;;;2.00;99.90;;;;;;5049174;28;20048;-79
2023/01/18 01:50:10;;;;;;;;;;;2.10;99.90;;;;;;5043708;28;20029;-79
2023/01/18 01:52:41;;;;;;;0.70;0.70;;;2.00;99.90;;;;;;5048306;28;19909;-79
2023/01/18 01:55:23;;;;;;;0.68;0.68;;;2.10;99.90;;;;;;5046081;28;20021;-79
2023/01/18 01:57:51;;;;;;;0.70;0.65;;;2.10;99.90;;;;;;5038079;28;20134;-79
2023/01/18 02:00:21;;;;;;;0.90;0.77;;;2.20;99.90;;;;;;5050709;28;20037;-79
2023/01/18 02:02:56;;;;;;;0.63;0.50;;;2.10;99.90;;;;;;5050090;28;20025;-79
2023/01/18 02:05:23;;;;;;;0.40;0.40;;;2.10;99.90;;;;;;5032884;28;20063;-79
2023/01/18 02:07:49;;;;;;;0.50;0.50;;;2.20;99.90;;;;;;5035506;28;20104;-79
2023/01/18 02:10:15;;;;;;;0.80;0.40;;;2.20;99.90;;;;;;5042649;28;20057;-79
2023/01/18 02:12:45;;;;;;;0.73;0.60;;;2.20;99.90;;;;;;5038148;28;20040;-79
2023/01/18 02:15:11;;;;;;;0.60;0.60;;;2.30;99.90;;;;;;5049768;28;20040;-79
2023/01/18 02:17:49;;;;;;;0.50;0.50;;;2.20;99.90;;;;;;5049872;28;20499;-79
2023/01/18 02:20:23;;;;;;;1.63;0.77;;;2.20;99.90;;;;;;5044939;28;20033;-79
2023/01/18 02:23:00;;;;;;;0.63;0.60;;;2.20;99.90;;;;;;5043979;28;20055;-79
2023/01/18 02:25:35;;;;;;;0.77;0.47;;;2.30;99.90;;;;;;5047530;28;20116;-79
2023/01/18 02:28:21;;;;;;;0.40;0.40;;;2.20;99.90;;;;;;5045239;28;20068;-79
2023/01/18 02:31:12;;;;;;;0.60;0.60;;;2.20;99.90;;;;;;5046662;28;20120;-79
2023/01/18 02:33:49;;;;;;;0.75;0.70;;;2.20;99.90;;;;;;5048604;28;20106;-79
2023/01/18 02:36:32;;;;;;;0.68;0.68;;;2.20;99.90;;;;;;5050481;28;20021;-79
2023/01/18 02:39:22;;;;;;;0.57;0.57;;;2.20;99.90;;;;;;5051912;28;20671;-79
2023/01/18 02:47:30;;;;;;;0.50;0.50;;;2.20;99.90;;;;;;5052879;28;20028;-79
2023/01/18 02:49:56;;;;;;;0.50;0.50;;;2.20;99.90;;;;;;5035506;28;20117;-79
2023/01/18 02:52:48;;;;;;;1.83;1.10;;;2.10;99.90;;;;;;5049920;28;20021;-78
2023/01/18 02:55:23;;;;;;;0.82;0.82;;;2.10;99.90;;;;;;5053231;28;20031;-79
2023/01/18 02:57:50;;;;;;;1.05;0.80;;;2.10;99.90;;;;;;5048148;28;20018;-79
2023/01/18 03:00:17;;;;;;;0.90;0.80;;;2.10;99.90;;;;;;5047859;28;20025;-79
2023/01/18 03:02:46;;;;;;;0.82;0.82;;;2.20;99.90;;;;;;5048359;28;20028;-79
2023/01/18 03:05:13;;;;;;;0.70;0.70;;;2.10;99.90;;;;;;5047946;28;20036;-79
2023/01/18 03:08:08;;;;;;;1.02;0.73;;;2.10;99.90;;;;;;5052424;28;20032;-79
2023/01/18 03:10:43;;;;;;;0.50;0.50;;;2.20;99.90;;;;;;5040311;28;20041;-79
2023/01/18 03:13:35;;;;;;;0.50;0.50;;;2.10;99.90;;;;;;5045844;28;20053;-79
2023/01/18 03:16:26;;;;;;;0.57;0.57;;;2.20;99.90;;;;;;5051448;28;20158;-79
2023/01/18 03:19:04;;;;;;;0.60;0.60;;;2.20;99.90;;;;;;5032955;28;20088;-79
2023/01/18 03:21:40;;;;;;;0.82;0.82;;;2.20;99.90;;;;;;5050703;28;20264;-79
2023/01/18 03:24:08;;;;;;;1.20;0.80;;;2.20;99.90;;;;;;5052061;28;20152;-79
2023/01/18 03:26:45;;;;;;;0.75;0.75;;;2.20;99.90;;;;;;5052292;28;20083;-79
2023/01/18 03:34:56;;;;;;;1.25;0.90;;;2.30;99.90;;;;;;5052325;28;20090;-79
2023/01/18 03:37:38;;;;;;;0.73;0.70;;;2.30;99.90;;;;;;5047294;28;20025;-79
2023/01/18 03:40:07;;;;;;;0.45;0.45;;;2.30;99.90;;;;;;5051569;28;20112;-79
2023/01/18 03:42:43;;;;;;;0.60;0.60;;;2.30;99.90;;;;;;5051326;28;21091;-79
2023/01/18 03:45:22;;;;;;;0.90;0.60;;;2.30;99.90;;;;;;5052132;28;20136;-79
2023/01/18 03:47:49;;;;;;;0.70;0.68;;;2.30;99.90;;;;;;5051611;28;20158;-79
2023/01/18 03:50:22;;;;;;;1.35;0.85;;;2.40;99.90;;;;;;5043366;28;20032;-79
2023/01/18 03:52:52;;;;;;;1.27;0.98;;;2.40;99.90;;;;;;5029939;28;20017;-79
2023/01/18 03:55:32;;;;;;;2.15;1.00;;;2.40;99.90;;;;;;5031945;28;20025;-79
2023/01/18 03:58:02;;;;;;;1.15;0.82;;;2.40;99.90;;;;;;5031676;28;20100;-79
2023/01/18 04:00:30;;;;;;;1.73;1.02;;;2.40;99.90;;;;;;5035190;28;20048;-79
2023/01/18 04:02:56;;;;;;;1.45;0.90;;;2.40;99.90;;;;;;5051151;28;20046;-79
2023/01/18 04:05:21;;;;;;;2.25;1.10;;;2.30;99.90;;;;;;5050250;28;20021;-79
2023/01/18 04:07:48;;;;;;;1.13;1.00;;;2.30;99.90;;;;;;5046541;28;20022;-79
2023/01/18 04:10:14;;;;;;;1.80;1.33;;;2.30;99.90;;;;;;5063541;28;20025;-79
2023/01/18 04:12:39;;;;;;;2.17;1.67;;;2.20;99.90;;;;;;5044781;28;20020;-78
2023/01/18 04:15:06;;;;;;;3.17;1.55;;;2.20;99.90;;;;;;5051763;28;20021;-79
2023/01/18 04:17:31;;;;;;;2.78;1.60;;;2.10;99.90;;;;;;5046081;28;20040;-79
2023/01/18 04:19:57;;;;;;;2.20;1.25;;;2.10;99.90;;;;;;5047869;28;20518;-79
2023/01/18 04:22:23;;;;;;;2.17;1.98;;;2.20;99.90;;;;;;5046643;28;20030;-79
2023/01/18 04:24:48;;;;;;;1.55;1.08;;;2.10;99.90;;;;;;5047473;28;20559;-79
2023/01/18 04:27:14;;;;;;;1.55;1.02;;;2.10;99.90;;;;;;5051152;28;20509;-79
2023/01/18 04:29:40;;;;;;;1.40;1.10;;;2.00;99.90;;;;;;5051160;28;20529;-79
2023/01/18 04:32:06;;;;;;;0.80;0.80;;;2.00;99.90;;;;;;5046407;28;20018;-79
2023/01/18 04:34:32;;;;;;;1.05;0.95;;;2.10;99.90;;;;;;5047204;28;20517;-79
2023/01/18 04:36:58;;;;;;;1.13;1.00;;;2.10;99.90;;;;;;5046734;28;20029;-79
2023/01/18 04:39:24;;;;;;;1.45;1.35;;;2.10;99.90;;;;;;5043147;28;20026;-79
2023/01/18 04:41:50;;;;;;;1.40;0.93;;;2.10;99.90;;;;;;5040071;28;20063;-79
2023/01/18 04:44:16;;;;;;;1.17;0.80;;;2.10;99.90;;;;;;5049411;28;20550;-79
2023/01/18 04:46:42;;;;;;;0.55;0.55;;;2.30;99.90;;;;;;5046180;28;20025;-79
2023/01/18 04:49:14;;;;;;;0.60;0.60;;;2.30;99.90;;;;;;5047699;28;20276;-79
2023/01/18 04:51:40;;;;;;;0.82;0.70;;;2.20;99.90;;;;;;5037462;28;20017;-79
2023/01/18 04:54:07;;;;;;;0.60;0.60;;;2.20;99.90;;;;;;5048297;28;20120;-79
2023/01/18 04:56:33;;;;;;;0.90;0.90;;;2.30;99.90;;;;;;5046163;28;20022;-79
2023/01/18 04:58:59;;;;;;;0.60;0.60;;;2.30;99.90;;;;;;5043830;28;20056;-79
2023/01/18 05:01:25;;;;;;;0.80;0.80;;;2.30;99.90;;;;;;5045857;28;20025;-79
2023/01/18 05:03:55;;;;;;;0.77;0.70;;;2.40;99.90;;;;;;5049384;28;20112;-79
2023/01/18 05:06:21;;;;;;;0.55;0.50;;;2.40;99.90;;;;;;5050523;28;20513;-79
2023/01/18 05:08:47;;;;;;;0.60;0.60;;;2.40;99.90;;;;;;5045187;28;20026;-79
2023/01/18 05:11:18;;;;;;;0.60;0.60;;;2.40;99.90;;;;;;5041882;28;20044;-79
2023/01/18 05:13:44;;;;;;;0.50;0.50;;;2.50;99.90;;;;;;5044067;28;20153;-79
2023/01/18 05:16:15;;;;;;;0.60;0.60;;;2.50;99.90;;;;;;5050347;28;20128;-79
2023/01/18 05:18:41;;;;;;;0.60;0.60;;;2.50;99.90;;;;;;5050228;28;20074;-79
2023/01/18 05:21:07;;;;;;;1.00;0.60;;;2.50;99.90;;;;;;5046277;28;20025;-79
2023/01/18 05:23:33;;;;;;;1.02;0.60;;;2.50;99.90;;;;;;5036599;28;20029;-79
2023/01/18 05:25:59;;;;;;;0.95;0.70;;;2.50;99.90;;;;;;5050421;28;20516;-79
2023/01/18 05:28:26;;;;;;;0.77;0.70;;;2.60;99.90;;;;;;5045767;28;20045;-79
2023/01/18 05:30:53;;;;;;;0.80;0.77;;;2.60;99.90;;;;;;5045676;28;20118;-79
2023/01/18 05:33:20;;;;;;;1.50;0.98;;;2.60;99.90;;;;;;5030327;28;20491;-79
2023/01/18 05:35:50;;;;;;;1.70;0.98;;;2.50;99.90;;;;;;5044004;28;20505;-79
2023/01/18 05:38:16;;;;;;;1.63;0.93;;;2.60;99.90;;;;;;5050270;28;20580;-79
2023/01/18 05:40:44;;;;;;;1.10;0.90;;;2.60;99.90;;;;;;5050567;28;20049;-79
2023/01/18 05:43:11;;;;;;;1.10;0.95;;;2.60;99.90;;;;;;5049378;28;20256;-79
2023/01/18 05:45:37;;;;;;;0.60;0.60;;;2.60;99.90;;;;;;5048908;28;20491;-79
2023/01/18 05:48:02;;;;;;;1.25;0.77;;;2.70;99.90;;;;;;5045310;28;20016;-79
2023/01/18 05:50:28;;;;;;;0.70;0.70;;;2.70;99.90;;;;;;5035868;28;20057;-79
2023/01/18 05:52:56;;;;;;;0.77;0.73;;;2.70;99.90;;;;;;5050371;28;20029;-79
2023/01/18 05:55:22;;;;;;;0.65;0.65;;;2.70;99.90;;;;;;5048590;28;20026;-79
2023/01/18 05:57:47;;;;;;;1.83;0.60;;;2.70;99.90;;;;;;5050096;28;20087;-79
2023/01/18 06:00:13;;;;;;;0.75;0.70;;;2.80;99.90;;;;;;5050026;28;20021;-79
2023/01/18 06:02:39;;;;;;;0.63;0.63;;;2.80;99.90;;;;;;5050086;28;20060;-79
2023/01/18 06:05:05;;;;;;;0.73;0.65;;;2.80;99.90;;;;;;5053235;28;20086;-79
2023/01/18 06:07:31;;;;;;;0.60;0.60;;;2.70;99.90;;;;;;5053936;28;20025;-79
2023/01/18 06:09:57;;;;;;;2.42;0.85;;;2.70;99.90;;;;;;5038266;28;20022;-79
2023/01/18 06:12:23;;;;;;;0.77;0.70;;;2.70;99.90;;;;;;5061357;28;20029;-79
2023/01/18 06:14:49;;;;;;;0.82;0.82;;;2.70;99.90;;;;;;5054140;28;20014;-79
2023/01/18 06:17:15;;;;;;;3.60;1.65;;;2.80;99.90;;;;;;5053796;28;20021;-79
2023/01/18 06:19:41;;;;;;;3.08;1.77;;;2.70;99.90;;;;;;5053585;28;20032;-79
2023/01/18 06:22:08;;;;;;;4.05;2.53;;;2.80;99.90;;;;;;5053949;28;20025;-79
2023/01/18 06:24:33;;;;;;;3.30;1.63;;;2.80;99.90;;;;;;5053196;28;20116;-79
2023/01/18 06:26:59;;;;;;;2.72;1.88;;;2.80;99.90;;;;;;5048809;28;20590;-79
2023/01/18 06:29:25;;;;;;;3.55;2.13;;;2.80;99.90;;;;;;5046926;28;20602;-79
2023/01/18 06:31:51;;;;;;;4.05;1.95;;;2.80;99.90;;;;;;5054056;28;20025;-79
2023/01/18 06:34:17;;;;;;;5.18;2.85;;;2.90;99.90;;;;;;5050309;28;20079;-79
2023/01/18 06:36:44;;;;;;;5.00;3.03;;;2.90;99.90;;;;;;5051808;28;20164;-79
2023/01/18 06:39:09;;;;;;;3.25;2.22;;;2.90;99.90;;;;;;5049637;28;20307;-79
2023/01/18 06:41:35;;;;;;;3.67;2.03;;;2.90;99.90;;;;;;5052973;28;20037;-79
2023/01/18 06:44:01;;;;;;;3.03;2.13;;;2.90;99.90;;;;;;5050264;28;20026;-79
2023/01/18 06:46:27;;;;;;;2.60;2.10;;;2.90;99.90;;;;;;5053405;28;20087;-79
2023/01/18 06:48:53;;;;;;;2.88;1.98;;;2.90;99.90;;;;;;5053137;28;20040;-79
2023/01/18 06:51:20;;;;;;;4.93;2.20;;;3.00;99.90;;;;;;5053324;28;20495;-79
2023/01/18 06:53:47;;;;;;;2.63;1.83;;;2.90;99.90;;;;;;5053316;28;20074;-78
2023/01/18 06:56:13;;;;;;;3.13;2.00;;;2.90;99.90;;;;;;5051846;28;20119;-79
2023/01/18 06:58:39;;;;;;;3.47;1.75;;;2.90;99.90;;;;;;5053095;28;20068;-79
2023/01/18 07:01:05;;;;;;;1.95;1.65;;;2.90;99.90;;;;;;5048539;28;20064;-79
2023/01/18 07:03:31;;;;;;;2.40;1.65;;;2.90;99.90;;;;;;5048523;28;20550;-79
2023/01/18 07:05:59;;;;;;;2.63;1.90;;;2.90;99.90;;;;;;5052970;28;20025;-79
2023/01/18 07:08:26;;;;;;;2.10;1.45;;;2.90;99.90;;;;;;5050189;28;20108;-79
2023/01/18 07:10:52;;;;;;;2.58;1.90;;;2.90;99.90;;;;;;5052796;28;20116;-79
2023/01/18 07:13:19;;;;;;;2.70;1.30;;;2.80;99.90;;;;;;5052693;28;20108;-79
2023/01/18 07:15:45;;;;;;;2.78;1.30;;;2.90;99.90;;;;;;5048421;28;20075;-79
2023/01/18 07:18:10;;;;;;;1.48;1.38;;;2.90;99.90;;;;;;5047364;28;20033;-79
2023/01/18 07:20:36;;;;;;;1.67;1.30;;;2.90;99.90;;;;;;5051165;28;20549;-79
2023/01/18 07:23:03;;;;;;;2.08;1.70;;;2.90;99.90;;;;;;5050233;28;20028;-79
2023/01/18 07:25:29;;;;;;;1.75;1.48;;;2.90;99.90;;;;;;5052225;28;20029;-79
2023/01/18 07:27:58;;;;;;;3.00;1.98;;;2.90;99.90;;;;;;5049845;28;20025;-79
2023/01/18 07:30:23;;;;;;;2.53;2.00;;;2.90;99.90;;;;;;5045807;28;20065;-78
2023/01/18 07:32:51;;;;;;;2.42;1.73;;;2.90;99.90;;;;;;5047433;28;20093;-78
2023/01/18 07:35:20;;;;;;;2.42;2.00;;;2.90;99.90;;;;;;5052554;28;20495;-78
2023/01/18 07:37:48;;;;;;;2.28;1.92;;;2.90;99.90;;;;;;5063390;28;20048;-78
2023/01/18 07:40:14;;;;;;;2.47;1.85;;;2.80;99.90;;;;;;5069069;28;20027;-78
2023/01/18 07:42:40;;;;;;;1.67;1.58;;;2.80;99.90;;;;;;5071047;28;20028;-78
2023/01/18 07:45:07;;;;;;;3.97;1.98;;;2.90;99.90;;;;;;5059849;28;20063;-78
2023/01/18 07:47:34;;;;;;;2.38;2.00;;;2.90;99.90;;;;;;5047864;28;20145;-79
2023/01/18 07:50:00;;;;;;;4.28;2.42;;;2.90;99.90;;;;;;5047254;28;20120;-79
2023/01/18 07:52:26;;;;;;;4.88;2.63;;;2.90;99.90;;;;;;5054322;28;20027;-79
2023/01/18 07:54:52;;;;;;;3.25;2.35;;;2.90;99.90;;;;;;5049377;28;20021;-79
2023/01/18 07:57:18;;;;;;;4.78;3.13;;;2.90;99.90;;;;;;5051699;28;20473;-79
2023/01/18 07:59:44;;;;;;;4.57;2.80;;;2.90;99.90;;;;;;5051768;28;20032;-79
2023/01/18 08:02:12;;;;;;;4.03;2.45;;;2.90;99.90;;;;;;5049938;28;20020;-79
2023/01/18 08:04:38;;;;;;;4.55;2.70;;;2.90;99.90;;;;;;5062849;28;20025;-79
2023/01/18 08:07:04;;;;;;;3.58;2.70;;;2.90;99.90;;;;;;5049035;28;20032;-80
2023/01/18 08:09:32;;;;;;;3.47;2.25;;;2.90;99.90;;;;;;5054022;28;20040;-80
2023/01/18 08:12:01;;;;;;;3.28;2.03;;;3.00;99.90;;;;;;5065816;28;20068;-80
2023/01/18 08:14:27;;;;;;;2.95;2.10;;;3.00;99.90;;;;;;5067006;28;20552;-80
2023/01/18 08:16:53;;;;;;;4.07;2.55;;;3.00;99.90;;;;;;5050953;28;20021;-80
2023/01/18 08:19:18;;;;;;;3.03;2.22;;;3.00;99.90;;;;;;5050477;28;20432;-80
2023/01/18 08:21:46;;;;;;;2.90;2.60;;;3.00;99.90;;;;;;5049110;28;20533;-80
2023/01/18 08:24:12;;;;;;;2.97;2.22;;;3.10;99.90;;;;;;5048121;28;20056;-80
2023/01/18 08:26:38;;;;;;;3.85;2.67;;;3.10;99.90;;;;;;5049491;28;20067;-80
2023/01/18 08:29:05;;;;;;;4.72;2.85;;;3.10;99.90;;;;;;5049648;28;20029;-80
2023/01/18 08:31:31;;;;;;;3.28;2.60;;;3.10;99.90;;;;;;5050971;28;20028;-79
2023/01/18 08:33:56;;;;;;;3.38;2.40;;;3.10;99.90;;;;;;5063947;28;20020;-79
2023/01/18 08:36:24;;;;;;;6.28;3.50;;;3.10;99.90;;;;;;5049974;28;20036;-79
2023/01/18 08:38:52;;;;;;;5.18;3.15;;;3.20;99.90;;;;;;5048845;28;20178;-79
2023/01/18 08:41:19;;;;;;;9.48;5.47;;;3.20;99.90;;;;;;5049894;28;20533;-79
2023/01/18 08:43:49;;;;;;;9.30;6.50;;;3.20;99.90;;;;;;5051154;28;20033;-79
2023/01/18 08:46:15;;;;;;;8.43;5.80;;;3.20;99.90;;;;;;5051815;28;20032;-80
2023/01/18 08:48:42;;;;;;;6.03;4.60;;;3.20;99.90;;;;;;5051141;28;20037;-79
2023/01/18 08:51:08;;;;;;;5.78;4.30;;;3.30;99.90;;;;;;5051739;28;20024;-79
2023/01/18 08:53:34;;;;;;;5.95;4.00;;;3.30;99.90;;;;;;5050968;28;20041;-79
2023/01/18 08:56:05;;;;;;;5.85;5.05;;;3.30;99.90;;;;;;5051258;28;20471;-80
2023/01/18 08:58:31;;;;;;;6.37;5.30;;;3.20;99.90;;;;;;5051161;28;20031;-79
2023/01/18 09:00:57;;;;;;;11.68;10.48;;;3.20;99.90;;;;;;5050309;28;20278;-80
2023/01/18 09:03:23;;;;;;;14.48;11.30;;;3.20;99.90;;;;;;5049735;28;20401;-80
2023/01/18 09:05:50;;;;;;;7.65;6.60;;;3.20;99.90;;;;;;5051639;28;20025;-80
2023/01/18 09:08:16;;;;;;;5.95;4.05;;;3.20;99.90;;;;;;5050831;28;20032;-79
2023/01/18 09:10:43;;;;;;;4.35;3.67;;;3.20;99.90;;;;;;5051277;28;20027;-79
2023/01/18 09:13:09;;;;;;;4.95;3.88;;;3.20;99.90;;;;;;5055223;28;20533;-79
2023/01/18 09:15:35;;;;;;;4.25;3.85;;;3.20;99.90;;;;;;5071211;28;20048;-79
2023/01/18 09:18:04;;;;;;;6.80;3.47;;;3.30;99.90;;;;;;5069860;28;20024;-79
2023/01/18 09:20:31;;;;;;;5.15;3.58;;;4.00;99.90;;;;;;5071690;28;20031;-79
2023/01/18 09:22:57;;;;;;;5.30;3.95;;;3.70;99.90;;;;;;5070338;28;20477;-79
2023/01/18 09:25:22;;;;;;;4.93;4.03;;;3.50;99.90;;;;;;5068036;28;20052;-79
2023/01/18 09:27:48;;;;;;;6.35;4.35;;;3.50;99.90;;;;;;5051384;28;20528;-79
2023/01/18 09:30:14;;;;;;;7.53;5.95;;;3.40;99.90;;;;;;5050270;28;20495;-80
2023/01/18 09:32:40;;;;;;;6.07;5.47;;;3.50;99.90;;;;;;5049504;28;20124;-80
2023/01/18 09:35:07;;;;;;;11.50;5.35;;;3.60;99.90;;;;;;5049509;28;20546;-80
2023/01/18 09:37:33;;;;;;;6.15;5.55;;;3.60;99.90;;;;;;5051345;28;20016;-80
2023/01/18 09:39:59;;;;;;;4.60;4.20;;;3.70;99.90;;;;;;5053700;28;20037;-80
2023/01/18 09:42:37;;;;;;;4.03;3.63;;;4.00;99.90;;;;;;5055086;28;20032;-80
2023/01/18 09:45:04;;;;;;;4.50;4.10;;;4.30;99.90;;;;;;5073109;28;20127;-80
2023/01/18 09:47:45;;;;;;;4.15;3.75;;;4.30;99.90;;;;;;5073894;28;20118;-79
2023/01/18 09:50:19;;;;;;;4.93;4.43;;;4.40;99.90;;;;;;5053318;28;20162;-80
2023/01/18 09:52:54;;;;;;;7.53;4.70;;;4.00;99.90;;;;;;5053797;28;20162;-80
2023/01/18 09:55:51;;;;;;;4.07;3.78;;;4.20;99.90;;;;;;5073024;28;20047;-80
2023/01/18 09:58:25;;;;;;;6.32;5.70;;;4.60;99.90;;;;;;5073006;28;21375;-80
2023/01/18 10:01:00;;;;;;;5.07;4.57;;;4.60;99.90;;;;;;5075096;28;20107;-81
2023/01/18 10:03:42;;;;;;;5.00;4.50;;;4.70;99.90;;;;;;5074331;28;20063;-80
2023/01/18 10:06:14;;;;;;;3.78;3.50;;;5.00;99.90;;;;;;5074590;28;20032;-81
2023/01/18 10:09:03;;;;;;;3.80;3.50;;;5.20;99.90;;;;;;5065355;28;20029;-80
2023/01/18 10:12:22;;;;;;;3.42;3.13;;;5.10;99.90;;;;;;5048442;28;20498;-80
2023/01/18 10:14:57;;;;;;;3.20;2.90;;;4.60;99.90;;;;;;5048143;28;20515;-79
2023/01/18 10:17:38;;;;;;;3.40;2.60;;;4.40;99.90;;;;;;5051617;28;20033;-80
2023/01/18 10:20:19;;;;;;;3.17;2.88;;;4.50;99.90;;;;;;5051850;28;20043;-80
2023/01/18 10:23:03;;;;;;;2.10;1.90;;;4.50;99.90;;;;;;5034373;28;20029;-79
